Time;durP1;ratioP1;P1;durP2;ratioP2;P2;SDS_P1;SDS_P2;PMS_P1;PMS_P2;Temp;Humidity;BMP_temperature;BMP_pressure;BME280_temperature;BME280_humidity;BME280_pressure;Samples;Min_cycle;Max_cycle;Signal;HPM_P1;HPM_P2
2024/03/08 00:02:19;;;;;;;43.90;23.60;;;;;;;;;;109429;1254;59103;-80
2024/03/08 00:04:45;;;;;;;110.10;47.50;;;;;;;;;;107269;1252;61350;-85
2024/03/08 00:07:13;;;;;;;59.00;30.70;;;;;;;;;;107088;1254;63366;-86
2024/03/08 00:09:39;;;;;;;48.40;25.40;;;;;;;;;;107071;1254;62464;-86
2024/03/08 00:12:06;;;;;;;41.30;23.00;;;;;;;;;;108576;1253;61132;-79
2024/03/08 00:14:33;;;;;;;47.50;23.70;;;;;;;;;;109367;1254;59595;-80
2024/03/08 00:16:59;;;;;;;46.70;24.30;;;;;;;;;;109436;1253;58912;-77
2024/03/08 00:19:25;;;;;;;53.20;25.30;;;;;;;;;;109477;1253;58860;-84
2024/03/08 00:21:52;;;;;;;51.10;25.00;;;;;;;;;;109519;1252;58966;-77
2024/03/08 00:24:24;;;;;;;43.90;24.20;;;;;;;;;;109496;1253;59099;-84
2024/03/08 00:26:50;;;;;;;44.30;21.50;;;;;;;;;;106596;1254;61234;-85
2024/03/08 00:29:17;;;;;;;45.50;24.30;;;;;;;;;;107025;1256;61404;-85
2024/03/08 00:31:43;;;;;;;44.20;22.90;;;;;;;;;;107126;1254;61263;-85
2024/03/08 00:34:11;;;;;;;50.30;25.30;;;;;;;;;;107033;1251;61201;-80
2024/03/08 00:36:38;;;;;;;43.00;23.10;;;;;;;;;;107176;1251;61192;-85
2024/03/08 00:39:06;;;;;;;44.20;23.00;;;;;;;;;;107090;1254;61228;-86
2024/03/08 00:41:32;;;;;;;36.80;20.10;;;;;;;;;;107140;1251;61148;-85
2024/03/08 00:43:59;;;;;;;48.80;25.40;;;;;;;;;;107159;1252;60694;-79
2024/03/08 00:46:28;;;;;;;56.70;30.70;;;;;;;;;;107173;1252;61327;-85
2024/03/08 00:48:56;;;;;;;55.20;26.90;;;;;;;;;;107226;1251;61702;-79
2024/03/08 00:51:23;;;;;;;51.30;24.20;;;;;;;;;;106543;1252;61298;-79
2024/03/08 00:53:49;;;;;;;45.80;22.10;;;;;;;;;;106392;1257;61245;-79
2024/03/08 00:56:15;;;;;;;52.40;25.20;;;;;;;;;;107055;1253;60487;-86
2024/03/08 00:58:42;;;;;;;52.20;25.40;;;;;;;;;;107099;1254;61128;-78
2024/03/08 01:01:09;;;;;;;50.80;26.30;;;;;;;;;;107496;1253;61279;-85
2024/03/08 01:03:36;;;;;;;48.80;24.00;;;;;;;;;;109379;1253;59713;-84
2024/03/08 01:06:03;;;;;;;46.60;23.30;;;;;;;;;;108183;1253;59207;-85
2024/03/08 01:08:29;;;;;;;46.90;23.60;;;;;;;;;;107107;1254;61211;-86
2024/03/08 01:10:55;;;;;;;43.20;23.20;;;;;;;;;;107147;1256;60651;-85
2024/03/08 01:13:22;;;;;;;44.90;22.10;;;;;;;;;;107109;1253;61247;-85
2024/03/08 01:15:48;;;;;;;56.20;25.00;;;;;;;;;;107002;1254;59917;-79
2024/03/08 01:18:15;;;;;;;43.10;24.80;;;;;;;;;;106386;1257;62393;-85
2024/03/08 01:20:41;;;;;;;46.40;21.80;;;;;;;;;;107073;1253;63135;-79
2024/03/08 01:23:08;;;;;;;48.40;23.70;;;;;;;;;;107185;1254;61205;-79
2024/03/08 01:25:34;;;;;;;44.80;24.80;;;;;;;;;;106425;1254;61372;-79
2024/03/08 01:28:02;;;;;;;53.60;26.60;;;;;;;;;;106340;1259;61384;-79
2024/03/08 01:30:28;;;;;;;49.60;25.20;;;;;;;;;;106480;1253;61218;-79
2024/03/08 01:32:55;;;;;;;49.10;23.60;;;;;;;;;;106518;1256;61286;-79
2024/03/08 01:35:22;;;;;;;52.70;27.30;;;;;;;;;;106578;1254;61218;-79
2024/03/08 01:37:49;;;;;;;51.20;25.50;;;;;;;;;;106608;1251;61120;-79
2024/03/08 01:40:16;;;;;;;45.50;23.00;;;;;;;;;;106591;1251;61342;-85
2024/03/08 01:42:43;;;;;;;45.60;23.70;;;;;;;;;;109578;1251;59055;-86
2024/03/08 01:45:09;;;;;;;44.80;23.80;;;;;;;;;;109547;1251;59165;-77
2024/03/08 01:47:36;;;;;;;46.50;23.30;;;;;;;;;;109437;1253;58924;-77
2024/03/08 01:50:06;;;;;;;43.70;24.70;;;;;;;;;;109554;1251;59026;-84
2024/03/08 01:52:32;;;;;;;44.10;23.60;;;;;;;;;;109482;1252;58850;-77
2024/03/08 01:55:00;;;;;;;49.40;24.80;;;;;;;;;;108805;1253;61425;-83
2024/03/08 01:57:27;;;;;;;47.80;25.20;;;;;;;;;;106456;1254;61220;-79
2024/03/08 01:59:55;;;;;;;46.80;24.20;;;;;;;;;;106337;1253;61914;-85
2024/03/08 02:02:22;;;;;;;48.20;23.70;;;;;;;;;;107197;1256;61277;-79
2024/03/08 02:04:48;;;;;;;50.50;25.50;;;;;;;;;;107165;1253;61281;-85
2024/03/08 02:07:15;;;;;;;50.80;25.40;;;;;;;;;;107152;1256;61282;-85
2024/03/08 02:09:41;;;;;;;49.40;26.00;;;;;;;;;;107111;1254;61298;-86
2024/03/08 02:12:08;;;;;;;44.20;23.60;;;;;;;;;;107048;1257;62356;-79
2024/03/08 02:14:34;;;;;;;48.00;22.50;;;;;;;;;;106368;1258;62398;-78
2024/03/08 02:17:01;;;;;;;42.90;22.50;;;;;;;;;;106987;1254;61402;-79
2024/03/08 02:19:27;;;;;;;49.30;25.10;;;;;;;;;;107206;1252;61345;-79
2024/03/08 02:21:54;;;;;;;55.70;24.40;;;;;;;;;;106881;1253;61369;-79
2024/03/08 02:24:21;;;;;;;40.60;22.10;;;;;;;;;;106350;1254;61340;-86
2024/03/08 02:26:47;;;;;;;42.00;21.80;;;;;;;;;;107118;1253;61329;-85
2024/03/08 02:29:14;;;;;;;44.40;22.00;;;;;;;;;;107116;1253;61233;-85
2024/03/08 02:31:41;;;;;;;48.70;26.60;;;;;;;;;;106969;1253;61284;-79
2024/03/08 02:34:07;;;;;;;50.10;26.30;;;;;;;;;;106971;1254;61192;-79
2024/03/08 02:36:34;;;;;;;47.10;24.00;;;;;;;;;;106316;1257;61140;-79
2024/03/08 02:39:02;;;;;;;43.00;22.20;;;;;;;;;;107001;1252;59214;-86
2024/03/08 02:41:28;;;;;;;49.20;25.00;;;;;;;;;;108011;1251;61219;-79
2024/03/08 02:43:55;;;;;;;41.90;22.10;;;;;;;;;;109519;1251;58919;-80
2024/03/08 02:46:21;;;;;;;44.50;22.50;;;;;;;;;;109495;1251;58821;-79
2024/03/08 02:48:48;;;;;;;53.80;25.00;;;;;;;;;;109511;1251;59053;-77
2024/03/08 02:51:15;;;;;;;49.80;24.90;;;;;;;;;;109530;1251;59026;-77
2024/03/08 02:53:43;;;;;;;46.90;24.20;;;;;;;;;;109349;1253;59768;-83
2024/03/08 02:56:12;;;;;;;45.20;24.20;;;;;;;;;;109449;1252;59155;-77
2024/03/08 02:58:39;;;;;;;42.80;23.50;;;;;;;;;;108962;1253;59783;-84
2024/03/08 03:01:05;;;;;;;48.80;24.90;;;;;;;;;;106356;1254;60682;-86
2024/03/08 03:03:33;;;;;;;47.00;25.40;;;;;;;;;;107124;1256;61084;-86
2024/03/08 03:06:00;;;;;;;48.00;25.10;;;;;;;;;;106998;1253;61281;-85
2024/03/08 03:08:27;;;;;;;55.20;24.60;;;;;;;;;;107044;1256;61825;-79
2024/03/08 03:10:56;;;;;;;43.40;22.50;;;;;;;;;;107172;1255;61216;-79
2024/03/08 03:13:23;;;;;;;49.70;23.70;;;;;;;;;;107018;1253;64658;-79
2024/03/08 03:15:49;;;;;;;41.40;23.00;;;;;;;;;;107098;1253;61367;-79
2024/03/08 03:18:16;;;;;;;52.90;25.60;;;;;;;;;;107110;1256;61235;-79
2024/03/08 03:20:44;;;;;;;46.10;22.60;;;;;;;;;;106482;1259;61336;-86
2024/03/08 03:23:13;;;;;;;44.40;22.50;;;;;;;;;;106969;1259;61161;-79
2024/03/08 03:25:41;;;;;;;46.90;21.50;;;;;;;;;;107014;1252;61979;-85
2024/03/08 03:28:07;;;;;;;45.90;25.40;;;;;;;;;;107192;1253;61225;-79
2024/03/08 03:30:34;;;;;;;47.90;22.90;;;;;;;;;;106953;1259;61346;-84
2024/03/08 03:33:00;;;;;;;50.10;23.00;;;;;;;;;;107123;1256;61173;-85
2024/03/08 03:35:30;;;;;;;50.00;26.30;;;;;;;;;;107228;1251;61406;-85
2024/03/08 03:38:06;;;;;;;46.60;23.10;;;;;;;;;;107210;1251;61301;-85
2024/03/08 03:40:33;;;;;;;44.50;22.80;;;;;;;;;;107251;1251;61100;-79
2024/03/08 03:43:00;;;;;;;49.40;25.70;;;;;;;;;;107205;1251;61318;-79
2024/03/08 03:45:27;;;;;;;44.80;22.30;;;;;;;;;;106546;1256;61301;-85
2024/03/08 03:47:53;;;;;;;47.30;24.70;;;;;;;;;;107196;1251;61147;-79
2024/03/08 03:50:20;;;;;;;48.50;25.70;;;;;;;;;;106647;1251;61345;-79
2024/03/08 03:52:46;;;;;;;48.70;24.00;;;;;;;;;;106508;1254;61218;-85
2024/03/08 03:55:13;;;;;;;47.50;23.40;;;;;;;;;;107180;1256;61308;-79
2024/03/08 03:57:40;;;;;;;47.40;23.00;;;;;;;;;;106540;1254;61235;-86
2024/03/08 04:00:09;;;;;;;45.70;23.00;;;;;;;;;;106371;1257;61104;-85
2024/03/08 04:02:37;;;;;;;57.70;23.40;;;;;;;;;;107124;1252;61389;-79
2024/03/08 04:05:07;;;;;;;48.70;22.10;;;;;;;;;;106359;1253;61356;-79
2024/03/08 04:07:34;;;;;;;44.40;21.90;;;;;;;;;;108349;1253;61119;-85
2024/03/08 04:10:03;;;;;;;47.60;21.90;;;;;;;;;;109475;1252;59410;-80
2024/03/08 04:12:30;;;;;;;44.10;21.10;;;;;;;;;;106987;1253;61273;-85
2024/03/08 04:14:56;;;;;;;42.40;22.00;;;;;;;;;;107161;1256;61913;-79
2024/03/08 04:17:26;;;;;;;46.10;22.20;;;;;;;;;;106314;1253;61277;-79
2024/03/08 04:19:52;;;;;;;48.20;22.80;;;;;;;;;;107107;1253;61196;-79
2024/03/08 04:22:19;;;;;;;44.90;22.60;;;;;;;;;;106469;1254;61763;-85
2024/03/08 04:24:45;;;;;;;47.30;23.20;;;;;;;;;;107051;1256;61297;-80
2024/03/08 04:27:12;;;;;;;53.90;27.40;;;;;;;;;;108006;1253;61135;-79
2024/03/08 04:29:38;;;;;;;57.10;26.20;;;;;;;;;;109365;1253;59053;-80
2024/03/08 04:32:06;;;;;;;58.20;25.30;;;;;;;;;;109347;1252;58922;-86
2024/03/08 04:34:34;;;;;;;41.90;22.70;;;;;;;;;;108143;1253;61498;-85
2024/03/08 04:37:01;;;;;;;44.40;22.20;;;;;;;;;;107225;1251;62197;-85
2024/03/08 04:39:28;;;;;;;38.50;21.30;;;;;;;;;;109553;1251;63111;-83
2024/03/08 04:41:56;;;;;;;52.50;23.60;;;;;;;;;;109580;1251;58986;-77
2024/03/08 04:44:23;;;;;;;55.20;24.50;;;;;;;;;;107599;1251;61263;-83
2024/03/08 04:46:49;;;;;;;41.20;20.50;;;;;;;;;;106620;1251;62286;-80
2024/03/08 04:49:15;;;;;;;40.50;19.70;;;;;;;;;;107222;1254;61240;-86
2024/03/08 04:51:42;;;;;;;49.30;21.80;;;;;;;;;;107165;1251;61209;-85
2024/03/08 04:54:09;;;;;;;41.60;19.70;;;;;;;;;;107197;1251;61231;-79
2024/03/08 04:56:36;;;;;;;41.50;20.70;;;;;;;;;;106904;1254;61198;-85
2024/03/08 04:59:02;;;;;;;41.20;20.10;;;;;;;;;;107104;1252;61260;-86
2024/03/08 05:01:29;;;;;;;37.00;19.70;;;;;;;;;;107163;1256;61433;-86
2024/03/08 05:03:55;;;;;;;43.20;19.00;;;;;;;;;;107170;1256;61142;-85
2024/03/08 05:06:23;;;;;;;58.90;19.50;;;;;;;;;;109039;1253;59240;-84
2024/03/08 05:08:49;;;;;;;29.70;17.20;;;;;;;;;;109380;1253;59747;-86
2024/03/08 05:11:16;;;;;;;36.00;18.80;;;;;;;;;;109506;1252;59100;-80
2024/03/08 05:13:43;;;;;;;35.70;17.60;;;;;;;;;;109414;1252;58949;-80
2024/03/08 05:16:09;;;;;;;45.20;18.00;;;;;;;;;;109500;1252;60786;-80
2024/03/08 05:18:36;;;;;;;33.70;17.80;;;;;;;;;;109423;1253;58920;-80
2024/03/08 05:21:03;;;;;;;32.40;16.00;;;;;;;;;;108594;1256;59284;-79
2024/03/08 05:23:30;;;;;;;34.40;16.60;;;;;;;;;;107206;1253;59851;-86
2024/03/08 05:25:57;;;;;;;30.60;17.00;;;;;;;;;;107185;1252;60753;-85
2024/03/08 05:28:23;;;;;;;41.90;22.50;;;;;;;;;;106992;1253;61284;-85
2024/03/08 05:30:50;;;;;;;30.20;17.60;;;;;;;;;;107006;1253;61181;-79
2024/03/08 05:33:16;;;;;;;34.10;18.70;;;;;;;;;;107132;1256;61247;-78
2024/03/08 05:35:43;;;;;;;30.80;17.50;;;;;;;;;;107116;1252;61372;-79
2024/03/08 05:38:10;;;;;;;32.70;18.80;;;;;;;;;;106649;1251;61324;-85
2024/03/08 05:40:36;;;;;;;39.00;16.70;;;;;;;;;;107182;1251;61228;-80
2024/03/08 05:43:03;;;;;;;34.10;18.30;;;;;;;;;;106669;1253;61346;-86
2024/03/08 05:45:29;;;;;;;38.50;18.00;;;;;;;;;;106909;1251;432272;-85
2024/03/08 05:47:56;;;;;;;38.80;16.60;;;;;;;;;;107184;1251;61257;-85
2024/03/08 05:50:23;;;;;;;34.90;16.30;;;;;;;;;;107196;1254;59188;-79
2024/03/08 05:52:49;;;;;;;34.10;16.90;;;;;;;;;;106541;1256;61116;-85
2024/03/08 05:55:16;;;;;;;34.30;16.40;;;;;;;;;;107152;1253;61087;-86
2024/03/08 05:57:42;;;;;;;39.00;17.40;;;;;;;;;;107098;1256;61225;-85
2024/03/08 06:00:15;;;;;;;33.70;16.60;;;;;;;;;;107106;1253;61259;-83
2024/03/08 06:02:42;;;;;;;30.20;15.30;;;;;;;;;;107108;1253;61225;-78
2024/03/08 06:05:09;;;;;;;26.30;16.10;;;;;;;;;;106554;1256;61744;-78
2024/03/08 06:07:36;;;;;;;35.00;17.00;;;;;;;;;;106553;1253;61286;-84
2024/03/08 06:10:03;;;;;;;31.60;16.20;;;;;;;;;;107296;1256;61760;-84
2024/03/08 06:12:33;;;;;;;36.00;16.60;;;;;;;;;;107157;1252;61209;-84
2024/03/08 06:15:00;;;;;;;39.40;18.00;;;;;;;;;;107196;1252;62242;-78
2024/03/08 06:17:26;;;;;;;45.00;19.90;;;;;;;;;;106525;1256;62780;-84
2024/03/08 06:19:54;;;;;;;34.30;17.50;;;;;;;;;;107228;1254;61333;-84
2024/03/08 06:22:20;;;;;;;34.10;18.00;;;;;;;;;;107204;1253;61260;-78
2024/03/08 06:24:47;;;;;;;38.90;17.70;;;;;;;;;;107044;1259;61359;-78
2024/03/08 06:27:13;;;;;;;36.10;17.50;;;;;;;;;;107121;1253;61222;-78
2024/03/08 06:29:40;;;;;;;28.90;15.70;;;;;;;;;;106369;1253;61263;-84
2024/03/08 06:32:06;;;;;;;31.10;17.00;;;;;;;;;;107150;1251;61286;-78
2024/03/08 06:34:34;;;;;;;30.80;16.00;;;;;;;;;;106397;1254;61218;-85
2024/03/08 06:37:01;;;;;;;42.30;18.60;;;;;;;;;;107091;1253;61335;-84
2024/03/08 06:39:32;;;;;;;30.80;17.60;;;;;;;;;;107128;1254;62145;-78
2024/03/08 06:41:58;;;;;;;43.20;19.50;;;;;;;;;;106349;1253;61559;-78
2024/03/08 06:44:25;;;;;;;35.90;17.50;;;;;;;;;;106546;1253;61362;-77
2024/03/08 06:46:52;;;;;;;35.00;16.70;;;;;;;;;;106317;1254;61227;-84
2024/03/08 06:49:19;;;;;;;32.00;16.40;;;;;;;;;;107270;1253;61352;-77
2024/03/08 06:51:46;;;;;;;29.60;15.70;;;;;;;;;;106556;1256;61259;-78
2024/03/08 06:54:12;;;;;;;47.80;18.80;;;;;;;;;;106411;1251;61995;-84
2024/03/08 06:56:39;;;;;;;39.40;17.80;;;;;;;;;;107113;1256;61327;-78
2024/03/08 06:59:06;;;;;;;31.40;16.80;;;;;;;;;;106545;1256;61309;-84
2024/03/08 07:01:34;;;;;;;52.10;21.60;;;;;;;;;;106555;1253;62343;-84
2024/03/08 07:04:05;;;;;;;33.60;17.70;;;;;;;;;;107012;1257;59394;-84
2024/03/08 07:06:33;;;;;;;29.30;15.40;;;;;;;;;;107270;1253;61242;-85
2024/03/08 07:08:59;;;;;;;38.40;16.20;;;;;;;;;;107367;1256;59261;-85
2024/03/08 07:11:26;;;;;;;33.10;18.30;;;;;;;;;;107235;1254;61244;-78
2024/03/08 07:13:53;;;;;;;32.80;17.60;;;;;;;;;;106674;1253;61050;-78
2024/03/08 07:16:21;;;;;;;33.00;16.10;;;;;;;;;;106641;1253;61244;-84
2024/03/08 07:18:47;;;;;;;32.20;18.20;;;;;;;;;;107314;1253;61112;-84
2024/03/08 07:21:14;;;;;;;31.10;15.20;;;;;;;;;;107057;1254;61152;-85
2024/03/08 07:23:53;;;;;;;33.20;15.60;;;;;;;;;;107027;1253;61241;-78
2024/03/08 07:26:20;;;;;;;34.40;17.30;;;;;;;;;;106552;1254;61247;-85
2024/03/08 07:28:46;;;;;;;31.60;16.40;;;;;;;;;;107264;1253;61329;-85
2024/03/08 07:31:45;;;;;;;29.30;15.30;;;;;;;;;;107178;1253;61720;-85
2024/03/08 07:34:00;;;;;;;32.40;16.50;;;;;;;;;;107312;1253;59972;-85
2024/03/08 07:36:26;;;;;;;31.60;16.80;;;;;;;;;;109430;1252;60612;-78
2024/03/08 07:38:52;;;;;;;30.80;16.40;;;;;;;;;;109280;1254;59197;-78
2024/03/08 07:41:19;;;;;;;26.60;14.70;;;;;;;;;;109481;1252;58911;-78
2024/03/08 07:43:46;;;;;;;33.60;17.70;;;;;;;;;;109392;1253;61802;-84
2024/03/08 07:46:13;;;;;;;35.40;18.00;;;;;;;;;;107538;1255;61262;-78
2024/03/08 07:48:40;;;;;;;36.00;15.90;;;;;;;;;;106370;1259;61314;-84
2024/03/08 07:51:09;;;;;;;40.00;16.30;;;;;;;;;;107207;1254;61134;-78
2024/03/08 07:53:36;;;;;;;;;;;;;;;;;;107158;1253;61157;-78
2024/03/08 07:56:02;;;;;;;35.70;17.30;;;;;;;;;;106464;1253;61921;-84
2024/03/08 07:58:29;;;;;;;27.90;14.90;;;;;;;;;;107134;1252;61266;-78
2024/03/08 08:00:55;;;;;;;33.30;16.50;;;;;;;;;;106562;1258;59554;-84
2024/03/08 08:03:22;;;;;;;31.20;15.00;;;;;;;;;;107128;1253;61193;-80
2024/03/08 08:05:49;;;;;;;25.50;15.70;;;;;;;;;;107437;1251;60683;-78
2024/03/08 08:08:15;;;;;;;30.20;16.20;;;;;;;;;;106565;1251;61267;-86
2024/03/08 08:10:42;;;;;;;29.30;14.90;;;;;;;;;;107323;1254;61393;-85
2024/03/08 08:13:08;;;;;;;34.50;15.20;;;;;;;;;;107495;1251;61961;-84
2024/03/08 08:15:35;;;;;;;30.80;16.10;;;;;;;;;;107435;1253;61239;-78
2024/03/08 08:18:05;;;;;;;34.70;16.10;;;;;;;;;;106611;1253;61213;-78
2024/03/08 08:20:31;;;;;;;48.50;18.50;;;;;;;;;;106827;1252;61168;-85
2024/03/08 08:22:58;;;;;;;33.40;16.60;;;;;;;;;;107512;1253;61858;-78
2024/03/08 08:25:25;;;;;;;30.30;14.70;;;;;;;;;;106610;1259;61318;-78
2024/03/08 08:27:53;;;;;;;27.80;15.80;;;;;;;;;;107400;1253;60318;-85
2024/03/08 08:30:20;;;;;;;33.00;16.10;;;;;;;;;;107254;1256;61176;-78
2024/03/08 08:32:47;;;;;;;30.60;14.50;;;;;;;;;;106472;1253;61231;-77
2024/03/08 08:35:13;;;;;;;32.10;14.80;;;;;;;;;;106576;1253;62404;-83
2024/03/08 08:37:40;;;;;;;26.20;15.60;;;;;;;;;;106450;1256;61384;-84
2024/03/08 08:40:10;;;;;;;27.30;14.20;;;;;;;;;;106358;1254;61295;-84
2024/03/08 08:42:37;;;;;;;28.00;16.80;;;;;;;;;;106431;1256;61128;-78
2024/03/08 08:45:07;;;;;;;32.10;16.30;;;;;;;;;;106332;1254;61334;-77
2024/03/08 08:47:35;;;;;;;38.10;15.20;;;;;;;;;;106720;1257;61326;-78
2024/03/08 08:50:02;;;;;;;25.60;15.20;;;;;;;;;;106391;1253;61322;-78
2024/03/08 08:52:29;;;;;;;25.60;13.60;;;;;;;;;;106479;1253;61258;-85
2024/03/08 08:54:56;;;;;;;36.90;17.60;;;;;;;;;;107060;1253;61177;-85
2024/03/08 08:57:22;;;;;;;27.40;16.10;;;;;;;;;;107322;1254;61936;-78
2024/03/08 08:59:49;;;;;;;27.90;15.70;;;;;;;;;;107030;1253;61113;-78
2024/03/08 09:02:20;;;;;;;23.90;13.20;;;;;;;;;;106315;1253;61327;-79
2024/03/08 09:04:47;;;;;;;24.70;14.90;;;;;;;;;;106386;1253;61215;-78
2024/03/08 09:07:14;;;;;;;35.90;17.60;;;;;;;;;;106355;1252;59147;-85
2024/03/08 09:09:41;;;;;;;32.20;16.00;;;;;;;;;;107091;1253;61318;-78
2024/03/08 09:12:09;;;;;;;36.00;17.00;;;;;;;;;;106373;1253;61358;-78
2024/03/08 09:14:36;;;;;;;29.40;17.80;;;;;;;;;;106540;1253;61683;-85
2024/03/08 09:17:02;;;;;;;27.90;16.70;;;;;;;;;;106871;1259;61196;-78
2024/03/08 09:19:28;;;;;;;27.90;15.20;;;;;;;;;;106662;1253;61244;-85
2024/03/08 09:21:55;;;;;;;31.80;17.10;;;;;;;;;;107181;1254;61215;-78
2024/03/08 09:24:21;;;;;;;28.80;17.10;;;;;;;;;;106989;1253;61263;-78
2024/03/08 09:26:48;;;;;;;29.30;15.90;;;;;;;;;;106509;1253;61281;-84
2024/03/08 09:29:15;;;;;;;30.70;15.20;;;;;;;;;;106493;1253;61371;-78
2024/03/08 09:31:41;;;;;;;28.40;14.20;;;;;;;;;;107091;1254;61317;-84
2024/03/08 09:34:08;;;;;;;24.00;13.70;;;;;;;;;;107082;1252;61231;-79
2024/03/08 09:36:35;;;;;;;31.40;15.50;;;;;;;;;;106530;1254;61165;-85
2024/03/08 09:39:01;;;;;;;31.70;16.10;;;;;;;;;;107119;1252;61320;-78
2024/03/08 09:41:28;;;;;;;36.80;18.50;;;;;;;;;;106964;1259;61332;-78
2024/03/08 09:43:57;;;;;;;24.80;14.30;;;;;;;;;;106516;1256;61142;-84
2024/03/08 09:46:24;;;;;;;28.70;16.30;;;;;;;;;;107212;1253;63449;-85
2024/03/08 09:48:50;;;;;;;32.90;17.70;;;;;;;;;;107094;1252;61147;-78
2024/03/08 09:51:17;;;;;;;36.70;21.30;;;;;;;;;;106703;1256;62053;-78
2024/03/08 09:53:43;;;;;;;30.30;16.60;;;;;;;;;;106519;1253;61307;-78
2024/03/08 09:56:11;;;;;;;24.80;14.50;;;;;;;;;;106475;1256;61224;-85
2024/03/08 09:59:00;;;;;;;30.50;16.70;;;;;;;;;;107066;1253;63399;-78
2024/03/08 10:01:25;;;;;;;29.00;15.20;;;;;;;;;;106859;1254;61260;-85
2024/03/08 10:03:52;;;;;;;29.30;15.30;;;;;;;;;;107062;1253;62601;-79
2024/03/08 10:06:22;;;;;;;29.60;16.80;;;;;;;;;;106353;1254;61253;-78
2024/03/08 10:08:48;;;;;;;34.70;16.90;;;;;;;;;;106496;1253;61280;-78
2024/03/08 10:11:15;;;;;;;31.90;14.70;;;;;;;;;;106844;1253;61526;-85
2024/03/08 10:13:41;;;;;;;26.20;14.80;;;;;;;;;;107116;1253;61289;-79
2024/03/08 10:16:08;;;;;;;29.40;16.50;;;;;;;;;;106915;1253;61911;-85
2024/03/08 10:18:34;;;;;;;27.30;17.40;;;;;;;;;;106978;1255;62165;-78
2024/03/08 10:21:04;;;;;;;27.40;15.90;;;;;;;;;;106543;1256;61254;-84
2024/03/08 10:23:31;;;;;;;29.30;15.20;;;;;;;;;;107403;1256;61326;-85
2024/03/08 10:25:58;;;;;;;29.10;15.80;;;;;;;;;;107383;1253;61319;-79
2024/03/08 10:28:28;;;;;;;27.50;14.00;;;;;;;;;;106565;1253;61259;-79
2024/03/08 10:30:55;;;;;;;29.70;16.70;;;;;;;;;;106664;1253;61140;-78
2024/03/08 10:33:22;;;;;;;31.00;17.50;;;;;;;;;;106665;1256;59023;-78
2024/03/08 10:35:48;;;;;;;32.70;17.10;;;;;;;;;;106609;1259;63427;-85
2024/03/08 10:38:15;;;;;;;82.40;34.30;;;;;;;;;;107093;1256;61346;-85
2024/03/08 10:40:41;;;;;;;33.50;17.90;;;;;;;;;;107043;1258;61221;-78
2024/03/08 10:43:10;;;;;;;28.70;15.90;;;;;;;;;;107186;1254;61413;-78
2024/03/08 10:45:37;;;;;;;90.10;41.30;;;;;;;;;;107639;1252;61225;-79
2024/03/08 10:48:08;;;;;;;45.00;22.00;;;;;;;;;;107059;1259;62634;-84
2024/03/08 10:50:35;;;;;;;36.70;19.10;;;;;;;;;;107158;1256;61355;-78
2024/03/08 10:53:03;;;;;;;32.70;16.90;;;;;;;;;;106453;1253;61375;-85
2024/03/08 10:55:29;;;;;;;30.80;17.70;;;;;;;;;;107259;1253;61157;-86
2024/03/08 10:57:56;;;;;;;29.90;16.90;;;;;;;;;;107430;1256;63330;-78
2024/03/08 11:00:26;;;;;;;27.80;16.90;;;;;;;;;;106940;1258;61990;-85
2024/03/08 11:02:56;;;;;;;28.80;16.30;;;;;;;;;;107327;1253;61231;-85
2024/03/08 11:05:35;;;;;;;30.80;17.50;;;;;;;;;;107249;1253;61020;-79
2024/03/08 11:08:04;;;;;;;41.90;17.80;;;;;;;;;;107226;1253;61253;-79
2024/03/08 11:10:30;;;;;;;33.20;18.10;;;;;;;;;;106534;1253;62346;-78
2024/03/08 11:12:58;;;;;;;28.70;16.20;;;;;;;;;;106548;1253;61215;-79
2024/03/08 11:15:24;;;;;;;33.40;15.70;;;;;;;;;;107293;1256;61217;-78
2024/03/08 11:17:51;;;;;;;31.20;16.90;;;;;;;;;;107133;1254;59587;-80
2024/03/08 11:20:20;;;;;;;28.20;16.90;;;;;;;;;;107151;1254;63327;-78
2024/03/08 11:23:01;;;;;;;28.60;16.70;;;;;;;;;;107144;1252;61335;-84
2024/03/08 11:25:31;;;;;;;36.80;18.50;;;;;;;;;;107169;1256;63221;-78
2024/03/08 11:28:17;;;;;;;29.50;17.10;;;;;;;;;;106994;1253;61332;-85
2024/03/08 11:31:07;;;;;;;31.30;18.20;;;;;;;;;;107164;1254;61209;-85
2024/03/08 11:33:34;;;;;;;35.30;18.20;;;;;;;;;;107096;1253;61343;-82
2024/03/08 11:36:11;;;;;;;40.20;20.60;;;;;;;;;;107239;1251;61228;-78
2024/03/08 11:38:41;;;;;;;33.60;20.10;;;;;;;;;;107119;1253;61240;-79
2024/03/08 11:41:08;;;;;;;32.30;17.80;;;;;;;;;;107170;1256;61214;-86
2024/03/08 11:43:35;;;;;;;32.70;19.40;;;;;;;;;;107215;1254;61349;-85
2024/03/08 11:46:08;;;;;;;29.70;15.20;;;;;;;;;;107342;1256;61186;-85
2024/03/08 11:48:35;;;;;;;42.30;18.10;;;;;;;;;;107181;1251;61144;-78
2024/03/08 11:51:03;;;;;;;32.20;16.70;;;;;;;;;;106520;1256;62052;-78
2024/03/08 11:53:30;;;;;;;29.00;16.80;;;;;;;;;;106523;1256;61210;-85
2024/03/08 11:56:06;;;;;;;35.40;17.80;;;;;;;;;;107099;1254;59657;-78
2024/03/08 11:58:33;;;;;;;34.00;19.40;;;;;;;;;;107070;1252;61187;-79
2024/03/08 12:01:04;;;;;;;42.20;20.80;;;;;;;;;;106307;1259;59875;-85
2024/03/08 12:03:33;;;;;;;34.70;18.80;;;;;;;;;;108257;1256;63104;-85
2024/03/08 12:06:00;;;;;;;34.60;18.60;;;;;;;;;;107222;1256;61352;-85
2024/03/08 12:08:30;;;;;;;40.20;19.80;;;;;;;;;;107121;1256;61253;-78
2024/03/08 12:10:59;;;;;;;34.60;19.30;;;;;;;;;;106512;1256;61282;-78
2024/03/08 12:13:25;;;;;;;;;;;;;;;;;;106602;1251;61215;-78
2024/03/08 12:15:52;;;;;;;33.40;18.10;;;;;;;;;;106518;1254;62171;-79
2024/03/08 12:18:18;;;;;;;84.80;48.80;;;;;;;;;;106982;1257;61247;-85
2024/03/08 12:20:49;;;;;;;45.10;23.50;;;;;;;;;;107100;1254;61374;-78
2024/03/08 12:23:16;;;;;;;37.30;21.70;;;;;;;;;;107271;1251;61194;-78
2024/03/08 12:25:43;;;;;;;38.70;21.00;;;;;;;;;;106934;1256;60493;-85
2024/03/08 12:28:10;;;;;;;35.30;19.20;;;;;;;;;;107271;1253;62999;-85
2024/03/08 12:30:43;;;;;;;52.10;30.30;;;;;;;;;;107261;1256;62334;-86
2024/03/08 12:33:12;;;;;;;34.80;19.90;;;;;;;;;;106934;1254;61714;-79
2024/03/08 12:35:39;;;;;;;32.30;19.30;;;;;;;;;;106685;1254;61339;-78
2024/03/08 12:38:06;;;;;;;61.40;26.10;;;;;;;;;;106747;1253;61321;-85
2024/03/08 12:40:34;;;;;;;37.20;19.90;;;;;;;;;;107255;1254;63098;-79
2024/03/08 12:43:01;;;;;;;32.00;19.40;;;;;;;;;;106593;1259;61288;-85
2024/03/08 12:45:27;;;;;;;36.90;19.10;;;;;;;;;;107386;1251;61412;-78
2024/03/08 12:47:54;;;;;;;36.80;20.50;;;;;;;;;;107299;1253;61236;-77
2024/03/08 12:50:21;;;;;;;35.40;21.50;;;;;;;;;;106443;1259;61227;-84
2024/03/08 12:52:48;;;;;;;30.30;18.90;;;;;;;;;;107160;1253;63099;-78
2024/03/08 12:55:16;;;;;;;31.70;18.90;;;;;;;;;;106781;1253;61326;-77
2024/03/08 12:57:42;;;;;;;38.90;18.70;;;;;;;;;;107549;1252;61241;-78
2024/03/08 13:00:12;;;;;;;32.20;19.30;;;;;;;;;;106730;1253;61407;-84
2024/03/08 13:02:39;;;;;;;28.70;17.00;;;;;;;;;;107255;1253;61247;-84
2024/03/08 13:05:09;;;;;;;33.30;19.20;;;;;;;;;;107123;1253;62219;-77
2024/03/08 13:07:37;;;;;;;38.80;21.30;;;;;;;;;;107001;1253;61139;-83
2024/03/08 13:10:04;;;;;;;35.70;19.00;;;;;;;;;;107051;1258;61251;-78
2024/03/08 13:12:31;;;;;;;31.90;18.80;;;;;;;;;;107333;1253;63041;-78
2024/03/08 13:14:57;;;;;;;36.80;19.30;;;;;;;;;;106694;1254;61342;-82
2024/03/08 13:17:24;;;;;;;34.00;18.90;;;;;;;;;;107316;1253;62032;-78
2024/03/08 13:19:50;;;;;;;34.90;18.80;;;;;;;;;;107264;1257;61276;-83
2024/03/08 13:22:17;;;;;;;30.70;18.20;;;;;;;;;;107445;1253;61240;-83
2024/03/08 13:24:45;;;;;;;35.30;20.10;;;;;;;;;;107427;1251;61050;-83
2024/03/08 13:27:21;;;;;;;35.40;19.00;;;;;;;;;;107165;1259;59394;-80
2024/03/08 13:29:48;;;;;;;31.20;19.40;;;;;;;;;;107404;1253;62407;-83
2024/03/08 13:32:20;;;;;;;36.40;20.20;;;;;;;;;;107332;1254;61147;-83
2024/03/08 13:34:50;;;;;;;35.20;21.20;;;;;;;;;;107523;1253;61154;-79
2024/03/08 13:37:17;;;;;;;34.20;19.00;;;;;;;;;;107730;1254;61124;-79
2024/03/08 13:39:44;;;;;;;36.30;20.00;;;;;;;;;;107918;1254;61313;-76
2024/03/08 13:42:12;;;;;;;92.30;32.50;;;;;;;;;;106687;1254;61394;-75
2024/03/08 13:44:40;;;;;;;34.80;19.10;;;;;;;;;;106791;1254;61298;-76
2024/03/08 13:47:07;;;;;;;38.60;20.00;;;;;;;;;;106798;1256;61164;-76
2024/03/08 13:49:33;;;;;;;38.30;20.30;;;;;;;;;;106704;1254;62190;-76
2024/03/08 13:52:00;;;;;;;43.10;19.90;;;;;;;;;;106617;1254;59669;-76
2024/03/08 13:54:27;;;;;;;32.20;19.00;;;;;;;;;;106689;1254;61149;-77
2024/03/08 13:56:54;;;;;;;33.20;20.00;;;;;;;;;;107408;1254;61248;-77
2024/03/08 13:59:24;;;;;;;38.60;20.40;;;;;;;;;;109292;1254;61088;-78
2024/03/08 14:01:50;;;;;;;40.40;21.60;;;;;;;;;;109127;1259;59329;-68
2024/03/08 14:04:17;;;;;;;32.90;20.10;;;;;;;;;;109395;1253;59208;-67
2024/03/08 14:06:44;;;;;;;33.20;18.80;;;;;;;;;;109370;1253;59315;-81
2024/03/08 14:09:16;;;;;;;35.00;19.90;;;;;;;;;;109233;1252;59335;-80